Time;durP1;ratioP1;P1;durP2;ratioP2;P2;SDS_P1;SDS_P2;PMS_P1;PMS_P2;Temp;Humidity;BMP_temperature;BMP_pressure;BME280_temperature;BME280_humidity;BME280_pressure;Samples;Min_cycle;Max_cycle;Signal;HPM_P1;HPM_P2
2021/12/04 00:02:00;;;;;;;3.83;1.63;;;21.50;48.20;;;;;;5022474;28;20042;-57
2021/12/04 00:04:32;;;;;;;2.70;1.45;;;21.40;48.10;;;;;;5018617;28;20010;-55
2021/12/04 00:06:58;;;;;;;2.08;1.30;;;21.50;48.20;;;;;;5025307;28;20481;-58
2021/12/04 00:09:24;;;;;;;2.50;1.40;;;21.40;48.10;;;;;;5026219;28;20034;-55
2021/12/04 00:12:01;;;;;;;2.75;1.65;;;21.50;48.20;;;;;;5024271;28;20362;-60
2021/12/04 00:14:28;;;;;;;2.63;1.40;;;21.40;48.10;;;;;;5023672;28;20030;-58
2021/12/04 00:16:54;;;;;;;2.80;1.55;;;21.40;48.10;;;;;;5023753;28;20034;-56
2021/12/04 00:19:20;;;;;;;3.72;1.40;;;21.40;48.20;;;;;;5024551;28;20036;-55
2021/12/04 00:21:46;;;;;;;2.55;1.40;;;21.30;48.10;;;;;;5027830;28;20025;-57
2021/12/04 00:24:12;;;;;;;3.13;1.55;;;21.30;48.20;;;;;;5025989;28;20040;-58
2021/12/04 00:26:38;;;;;;;2.40;1.48;;;21.30;48.20;;;;;;5025243;28;20132;-56
2021/12/04 00:29:07;;;;;;;2.20;1.17;;;21.30;48.20;;;;;;5024484;28;20086;-60
2021/12/04 00:31:34;;;;;;;2.55;1.50;;;21.30;48.20;;;;;;5023177;28;20045;-60
2021/12/04 00:34:00;;;;;;;2.30;1.30;;;21.30;48.20;;;;;;5021667;28;20033;-56
2021/12/04 00:49:48;;;;;;;2.20;1.30;;;21.20;48.30;;;;;;5024887;28;20079;-58
2021/12/04 00:52:14;;;;;;;2.28;1.33;;;21.20;48.80;;;;;;5025068;28;20489;-58
2021/12/04 00:54:40;;;;;;;3.05;1.48;;;21.20;48.30;;;;;;5019757;28;20032;-60
2021/12/04 00:57:06;;;;;;;2.38;1.25;;;21.10;48.30;;;;;;5021650;28;20021;-60
2021/12/04 00:59:32;;;;;;;2.50;1.40;;;21.10;48.30;;;;;;5022945;28;20615;-61
2021/12/04 01:01:57;;;;;;;1.83;1.13;;;21.10;48.30;;;;;;5026495;28;20037;-59
2021/12/04 01:04:23;;;;;;;2.30;1.30;;;21.10;48.30;;;;;;5024968;28;20049;-59
2021/12/04 01:06:49;;;;;;;2.08;1.23;;;21.10;48.30;;;;;;5025289;28;20373;-58
2021/12/04 01:09:17;;;;;;;2.60;1.35;;;21.10;48.30;;;;;;5025044;28;20193;-59
2021/12/04 01:11:43;;;;;;;1.80;1.00;;;21.10;48.30;;;;;;5022792;28;20127;-59
2021/12/04 01:14:11;;;;;;;2.40;1.30;;;21.00;48.30;;;;;;5022334;28;20034;-60
2021/12/04 01:16:37;;;;;;;2.15;1.40;;;21.00;48.30;;;;;;5026874;28;20054;-59
2021/12/04 01:19:03;;;;;;;2.45;1.20;;;21.00;48.30;;;;;;5025713;28;20665;-61
2021/12/04 01:21:29;;;;;;;2.40;1.30;;;21.00;48.30;;;;;;5026571;28;20031;-58
2021/12/04 01:23:55;;;;;;;2.50;1.40;;;21.00;48.30;;;;;;5024983;28;20049;-57
2021/12/04 01:26:21;;;;;;;2.15;1.30;;;21.00;48.40;;;;;;5020407;28;20033;-59
2021/12/04 01:28:47;;;;;;;2.10;1.30;;;21.00;48.40;;;;;;5023244;28;20540;-58
2021/12/04 01:31:13;;;;;;;1.83;1.15;;;21.00;48.40;;;;;;5024599;28;20060;-58
2021/12/04 01:33:40;;;;;;;1.88;1.10;;;20.90;48.40;;;;;;5021537;28;20068;-59
2021/12/04 01:36:05;;;;;;;1.90;1.20;;;20.90;48.40;;;;;;5023976;28;20059;-60
2021/12/04 01:38:31;;;;;;;1.50;1.10;;;20.90;48.40;;;;;;5024427;28;20037;-60
2021/12/04 01:40:57;;;;;;;2.60;1.40;;;20.90;48.90;;;;;;5019963;28;20040;-60
2021/12/04 01:43:23;;;;;;;2.15;1.25;;;20.90;48.40;;;;;;5019816;28;20029;-59
2021/12/04 01:45:48;;;;;;;2.22;1.23;;;20.90;48.40;;;;;;5026754;28;20124;-60
2021/12/04 01:48:14;;;;;;;1.85;1.13;;;20.90;48.40;;;;;;5027827;28;20032;-60
2021/12/04 01:50:40;;;;;;;1.92;1.08;;;20.90;48.40;;;;;;5025848;28;20029;-57
2021/12/04 01:53:06;;;;;;;1.65;1.10;;;20.90;48.40;;;;;;5026371;28;20057;-58
2021/12/04 01:55:35;;;;;;;1.92;1.10;;;20.80;48.40;;;;;;5024102;28;20056;-58
2021/12/04 01:58:01;;;;;;;1.75;1.13;;;20.80;48.40;;;;;;5017807;28;20087;-58
2021/12/04 02:00:34;;;;;;;3.25;1.35;;;20.80;48.50;;;;;;5029977;28;20029;-59
2021/12/04 02:03:03;;;;;;;1.85;1.20;;;20.80;48.50;;;;;;5025933;28;20528;-58
2021/12/04 02:05:28;;;;;;;1.80;1.10;;;20.80;48.50;;;;;;5024208;28;20053;-58
2021/12/04 02:07:54;;;;;;;2.00;1.20;;;20.80;48.50;;;;;;5029832;28;20076;-54
2021/12/04 02:10:20;;;;;;;2.30;1.40;;;20.80;48.50;;;;;;5027397;28;20060;-58
2021/12/04 02:12:47;;;;;;;2.33;1.30;;;20.80;48.50;;;;;;5026184;28;20029;-59
2021/12/04 02:15:14;;;;;;;2.45;1.20;;;20.80;48.50;;;;;;5032827;28;20500;-56
2021/12/04 02:17:40;;;;;;;1.25;1.00;;;20.70;49.00;;;;;;5027159;28;20059;-57
2021/12/04 02:20:18;;;;;;;1.48;1.00;;;20.70;48.50;;;;;;5029407;28;20037;-59
2021/12/04 02:22:44;;;;;;;1.92;0.90;;;20.70;48.50;;;;;;5027598;28;20402;-57
2021/12/04 02:25:10;;;;;;;1.83;1.23;;;20.70;48.50;;;;;;5023916;28;20030;-57
2021/12/04 02:27:36;;;;;;;1.40;1.10;;;20.70;48.50;;;;;;5025956;28;20678;-57
2021/12/04 02:30:10;;;;;;;2.22;1.20;;;20.70;48.50;;;;;;5027106;28;20029;-60
2021/12/04 02:32:36;;;;;;;2.03;1.13;;;20.70;48.50;;;;;;5024466;28;20029;-60
2021/12/04 02:35:02;;;;;;;1.90;1.00;;;20.70;48.60;;;;;;5025790;28;20034;-59
2021/12/04 02:37:27;;;;;;;2.17;1.42;;;20.70;48.60;;;;;;5028263;28;20028;-58
2021/12/04 02:39:58;;;;;;;1.90;1.10;;;20.70;48.60;;;;;;5024134;28;20037;-58
2021/12/04 02:42:30;;;;;;;1.55;1.05;;;20.70;48.60;;;;;;5023723;28;20107;-59
2021/12/04 02:44:57;;;;;;;1.40;0.90;;;20.60;48.60;;;;;;5025050;28;20216;-57
2021/12/04 02:47:23;;;;;;;3.10;1.65;;;20.60;48.60;;;;;;5025543;28;20052;-58
2021/12/04 02:49:48;;;;;;;2.03;1.20;;;20.60;48.60;;;;;;5028494;28;20033;-58
2021/12/04 02:52:15;;;;;;;1.92;1.30;;;20.60;49.10;;;;;;5028773;28;20033;-58
2021/12/04 02:54:41;;;;;;;2.08;1.10;;;20.60;48.60;;;;;;5001602;28;20029;-57
2021/12/04 02:57:12;;;;;;;2.03;1.20;;;20.60;48.70;;;;;;5005750;28;20182;-57
2021/12/04 02:59:40;;;;;;;1.25;1.00;;;20.60;48.60;;;;;;5025963;28;20061;-59
2021/12/04 03:02:10;;;;;;;1.58;1.05;;;20.60;48.70;;;;;;5023826;28;20190;-59
2021/12/04 03:04:36;;;;;;;2.05;1.10;;;20.60;48.70;;;;;;5023499;28;20090;-60
2021/12/04 03:07:01;;;;;;;2.05;1.20;;;20.60;48.70;;;;;;5028446;28;20029;-59
2021/12/04 03:09:27;;;;;;;1.40;1.10;;;20.50;48.70;;;;;;5024970;28;20715;-57
2021/12/04 03:11:53;;;;;;;1.92;0.90;;;20.60;48.70;;;;;;5028869;28;20052;-57
2021/12/04 03:14:20;;;;;;;1.55;1.00;;;20.50;48.70;;;;;;5027690;28;20436;-60
2021/12/04 03:16:45;;;;;;;1.35;0.98;;;20.50;48.70;;;;;;5024281;28;20083;-58
2021/12/04 03:19:11;;;;;;;3.45;1.20;;;20.50;48.70;;;;;;5020337;28;20038;-61
2021/12/04 03:21:38;;;;;;;2.05;1.30;;;20.50;48.80;;;;;;5025240;28;20598;-58
2021/12/04 03:24:07;;;;;;;1.30;1.00;;;20.50;48.70;;;;;;5025607;28;20063;-53
2021/12/04 03:26:34;;;;;;;2.80;1.20;;;20.50;48.70;;;;;;5023528;28;20047;-56
2021/12/04 03:29:03;;;;;;;1.45;0.90;;;20.50;48.80;;;;;;5022327;28;20037;-59
2021/12/04 03:42:25;;;;;;;1.90;1.13;;;20.40;48.80;;;;;;5026266;28;20288;-58
2021/12/04 03:44:51;;;;;;;2.13;1.00;;;20.40;48.80;;;;;;5026887;28;20126;-59
2021/12/04 03:47:19;;;;;;;1.80;1.00;;;20.40;48.80;;;;;;5025539;28;20025;-57
2021/12/04 03:49:45;;;;;;;1.85;1.00;;;20.40;48.90;;;;;;5024619;28;20060;-58
2021/12/04 03:52:11;;;;;;;1.65;1.00;;;20.40;48.90;;;;;;5029960;28;20618;-59
2021/12/04 03:54:37;;;;;;;1.20;0.90;;;20.40;48.90;;;;;;5020517;28;20033;-56
2021/12/04 03:57:04;;;;;;;1.63;1.00;;;20.40;48.90;;;;;;5026932;28;20034;-57
2021/12/04 03:59:41;;;;;;;1.20;0.98;;;20.40;48.90;;;;;;5025121;28;20091;-60
2021/12/04 04:02:10;;;;;;;1.38;0.90;;;20.40;48.90;;;;;;5030487;28;20040;-57
2021/12/04 04:04:36;;;;;;;1.20;0.90;;;20.40;48.90;;;;;;5023535;28;20374;-60
2021/12/04 04:07:02;;;;;;;1.38;0.93;;;20.40;48.90;;;;;;5021357;28;20041;-56
2021/12/04 04:09:28;;;;;;;1.30;0.90;;;20.40;48.90;;;;;;5021890;28;20025;-57
2021/12/04 04:11:54;;;;;;;1.42;1.00;;;20.40;49.00;;;;;;5028507;28;20122;-59
2021/12/04 04:14:21;;;;;;;1.23;0.85;;;20.40;49.00;;;;;;5027235;28;20033;-56
2021/12/04 04:16:46;;;;;;;1.23;0.80;;;20.40;49.00;;;;;;5026626;28;20032;-59
2021/12/04 04:19:12;;;;;;;1.77;1.00;;;20.40;49.00;;;;;;5022494;28;20608;-55
2021/12/04 04:21:40;;;;;;;1.20;0.88;;;20.30;48.90;;;;;;5028658;28;20029;-58
2021/12/04 04:24:16;;;;;;;1.63;0.90;;;20.30;49.00;;;;;;5023229;28;20549;-56
2021/12/04 04:26:43;;;;;;;1.17;0.80;;;20.30;49.00;;;;;;5024712;28;20103;-54
2021/12/04 04:29:10;;;;;;;1.40;0.90;;;20.30;49.00;;;;;;5024519;28;20033;-57
2021/12/04 04:31:43;;;;;;;1.40;0.85;;;20.30;49.00;;;;;;5023019;28;20132;-59
2021/12/04 04:34:09;;;;;;;1.05;0.77;;;20.30;49.10;;;;;;5024653;28;20056;-60
2021/12/04 04:59:10;;;;;;;0.90;0.80;;;20.20;49.10;;;;;;5021544;28;20044;-60
2021/12/04 05:14:35;;;;;;;1.33;0.90;;;20.20;49.20;;;;;;5027413;28;20025;-60
2021/12/04 05:17:11;;;;;;;1.10;0.80;;;20.20;49.20;;;;;;5027922;28;20566;-60
2021/12/04 05:19:43;;;;;;;1.02;0.85;;;20.20;49.20;;;;;;5017586;28;20024;-58
2021/12/04 05:22:14;;;;;;;1.08;0.73;;;20.20;49.20;;;;;;5023334;28;20036;-59
2021/12/04 05:24:41;;;;;;;1.05;0.70;;;20.20;49.20;;;;;;5019775;28;20033;-59
2021/12/04 05:27:08;;;;;;;1.00;0.77;;;20.20;49.20;;;;;;5022540;28;20164;-55
2021/12/04 05:29:34;;;;;;;1.10;0.80;;;20.20;49.20;;;;;;5022876;28;20037;-60
2021/12/04 05:32:01;;;;;;;1.20;0.82;;;20.20;49.30;;;;;;5018267;28;20029;-59
2021/12/04 05:34:27;;;;;;;1.27;0.80;;;20.20;49.30;;;;;;5022242;28;20025;-58
2021/12/04 05:36:53;;;;;;;0.93;0.70;;;20.20;49.30;;;;;;5019223;28;20034;-59
2021/12/04 05:39:19;;;;;;;1.38;0.90;;;20.20;49.30;;;;;;5022980;28;20043;-58
2021/12/04 05:41:44;;;;;;;1.33;0.90;;;20.20;49.30;;;;;;5019886;28;20029;-60
2021/12/04 05:44:11;;;;;;;1.08;0.85;;;20.20;49.30;;;;;;5024947;28;20067;-58
2021/12/04 05:46:43;;;;;;;1.20;0.80;;;20.20;49.30;;;;;;5024329;28;20624;-57
2021/12/04 05:49:50;;;;;;;0.82;0.70;;;20.20;49.30;;;;;;5027111;28;20073;-60
2021/12/04 05:55:43;;;;;;;1.35;0.85;;;20.10;49.20;;;;;;5016725;28;20041;-58
2021/12/04 05:57:57;;;;;;;1.05;0.73;;;20.20;49.30;;;;;;5012822;28;20084;-59
2021/12/04 06:00:25;;;;;;;1.17;0.80;;;20.10;49.30;;;;;;5017807;28;20514;-59
2021/12/04 06:02:51;;;;;;;1.00;0.70;;;20.10;49.30;;;;;;5021173;28;20714;-57
2021/12/04 06:05:17;;;;;;;0.80;0.60;;;20.10;49.30;;;;;;5021651;28;20445;-55
2021/12/04 06:07:43;;;;;;;1.05;0.80;;;20.10;49.30;;;;;;5025151;28;20045;-59
2021/12/04 06:10:10;;;;;;;1.05;0.80;;;20.10;49.40;;;;;;5022808;28;20847;-57
2021/12/04 06:12:37;;;;;;;1.48;0.90;;;20.10;49.40;;;;;;5023207;28;20022;-60
2021/12/04 06:15:03;;;;;;;1.10;0.77;;;20.10;49.40;;;;;;5023658;28;20083;-59
2021/12/04 06:17:29;;;;;;;1.38;0.90;;;20.10;49.40;;;;;;5026182;28;20041;-58
2021/12/04 06:22:41;;;;;;;1.05;0.70;;;20.10;49.40;;;;;;5022492;28;20036;-58
2021/12/04 06:25:13;;;;;;;1.00;0.80;;;20.10;49.40;;;;;;5019320;28;20033;-56
2021/12/04 06:27:39;;;;;;;0.93;0.70;;;20.10;49.40;;;;;;5019107;28;20409;-56
2021/12/04 06:30:08;;;;;;;1.27;0.70;;;20.10;49.40;;;;;;5023507;28;20610;-59
2021/12/04 06:32:36;;;;;;;0.80;0.80;;;20.00;49.40;;;;;;5022993;28;20087;-59
2021/12/04 06:35:04;;;;;;;0.93;0.70;;;20.00;49.40;;;;;;5023328;28;20155;-59
2021/12/04 06:37:29;;;;;;;0.82;0.63;;;20.00;49.90;;;;;;5018686;28;20036;-60
2021/12/04 06:39:55;;;;;;;0.90;0.70;;;20.10;49.50;;;;;;5021372;28;20510;-59
2021/12/04 06:42:20;;;;;;;1.27;0.85;;;20.10;49.50;;;;;;5024315;28;20048;-59
2021/12/04 06:44:46;;;;;;;1.15;0.70;;;20.00;49.40;;;;;;5025689;28;20040;-56
2021/12/04 06:47:12;;;;;;;1.20;0.70;;;20.00;49.50;;;;;;5030609;28;20041;-60
2021/12/04 06:49:41;;;;;;;0.60;0.60;;;20.00;49.50;;;;;;5025271;28;20132;-59
2021/12/04 06:52:11;;;;;;;1.13;0.80;;;20.00;49.50;;;;;;5024270;28;20025;-60
2021/12/04 06:54:40;;;;;;;0.90;0.60;;;20.00;49.50;;;;;;5020280;28;20029;-58
2021/12/04 06:57:09;;;;;;;0.80;0.70;;;20.00;49.50;;;;;;5027566;28;20044;-60
2021/12/04 06:59:37;;;;;;;1.10;0.80;;;20.00;49.50;;;;;;5018856;28;20064;-60
2021/12/04 07:02:03;;;;;;;1.13;0.70;;;20.00;49.50;;;;;;5022815;28;20124;-61
2021/12/04 07:04:34;;;;;;;1.13;0.70;;;20.00;49.50;;;;;;5022439;28;20108;-60
2021/12/04 07:07:01;;;;;;;1.17;0.70;;;20.00;49.50;;;;;;5025588;28;20024;-60
2021/12/04 07:09:26;;;;;;;0.82;0.63;;;20.00;49.50;;;;;;5025415;28;20067;-57
2021/12/04 07:11:52;;;;;;;0.70;0.70;;;20.00;49.50;;;;;;5025639;28;20826;-60
2021/12/04 07:14:18;;;;;;;0.80;0.65;;;20.00;49.50;;;;;;5024333;28;20029;-57
2021/12/04 07:16:44;;;;;;;0.98;0.60;;;20.00;49.60;;;;;;5026956;28;20021;-58
2021/12/04 07:19:10;;;;;;;0.60;0.60;;;20.00;49.50;;;;;;5024888;28;20126;-59
2021/12/04 07:21:35;;;;;;;0.85;0.70;;;20.00;49.60;;;;;;5025510;28;20036;-61
2021/12/04 07:24:01;;;;;;;0.93;0.80;;;20.00;49.60;;;;;;5024650;28;20473;-59
2021/12/04 07:26:27;;;;;;;0.85;0.68;;;20.00;49.60;;;;;;5022606;28;20052;-61
2021/12/04 07:28:52;;;;;;;1.48;0.82;;;20.00;49.50;;;;;;5026601;28;20037;-59
2021/12/04 07:31:18;;;;;;;1.90;0.70;;;19.90;49.50;;;;;;5022439;28;20050;-59
2021/12/04 07:33:44;;;;;;;1.50;0.80;;;20.00;49.60;;;;;;5023771;28;20439;-60
2021/12/04 07:36:09;;;;;;;1.15;0.70;;;19.90;49.50;;;;;;5025337;28;20025;-60
2021/12/04 07:38:35;;;;;;;1.50;0.80;;;19.90;49.50;;;;;;5021740;28;20641;-62
2021/12/04 07:41:01;;;;;;;1.00;0.60;;;19.90;49.50;;;;;;5022279;28;20029;-58
2021/12/04 07:43:27;;;;;;;1.55;0.90;;;19.90;49.40;;;;;;5026741;28;20057;-60
2021/12/04 07:45:53;;;;;;;1.77;0.80;;;20.00;49.50;;;;;;5025674;28;20094;-58
2021/12/04 07:48:19;;;;;;;0.95;0.70;;;19.90;49.50;;;;;;5022626;28;20030;-60
2021/12/04 07:50:45;;;;;;;0.90;0.70;;;19.90;49.40;;;;;;5015767;28;20026;-62
2021/12/04 07:53:10;;;;;;;1.20;0.75;;;19.90;49.50;;;;;;5018076;28;20017;-59
2021/12/04 07:55:36;;;;;;;1.30;0.70;;;19.90;49.50;;;;;;5022256;28;20028;-60
2021/12/04 07:58:02;;;;;;;0.95;0.60;;;19.90;49.50;;;;;;5021566;28;20021;-60
2021/12/04 08:00:29;;;;;;;1.83;0.85;;;19.90;49.40;;;;;;5021855;28;20064;-60
2021/12/04 08:02:55;;;;;;;1.50;0.88;;;19.90;49.40;;;;;;5019532;28;20239;-62
2021/12/04 08:05:20;;;;;;;1.33;0.80;;;19.90;49.50;;;;;;5025159;28;20025;-60
2021/12/04 08:07:46;;;;;;;1.50;1.00;;;19.90;49.50;;;;;;5022817;28;20126;-59
2021/12/04 08:10:16;;;;;;;1.10;0.90;;;19.90;49.50;;;;;;5021810;28;20037;-59
2021/12/04 08:12:42;;;;;;;1.58;1.20;;;19.90;49.50;;;;;;5019563;28;20041;-58
2021/12/04 08:15:10;;;;;;;1.13;0.90;;;19.90;49.50;;;;;;5023691;28;20022;-57
2021/12/04 08:17:37;;;;;;;2.72;0.93;;;19.80;49.40;;;;;;5020905;28;20032;-59
2021/12/04 08:20:04;;;;;;;1.80;1.00;;;19.80;49.40;;;;;;5025511;28;20121;-58
2021/12/04 08:22:29;;;;;;;1.40;0.80;;;19.80;49.40;;;;;;5022706;28;20033;-59
2021/12/04 08:24:55;;;;;;;1.20;0.90;;;19.80;49.40;;;;;;5015047;28;20086;-59
2021/12/04 08:27:21;;;;;;;1.40;0.90;;;19.80;49.40;;;;;;5022332;28;20025;-58
2021/12/04 08:29:46;;;;;;;2.15;1.08;;;19.80;49.40;;;;;;5022547;28;20042;-59
2021/12/04 08:32:12;;;;;;;1.10;0.80;;;19.90;49.50;;;;;;5023847;28;20038;-57
2021/12/04 08:34:38;;;;;;;1.60;0.90;;;19.80;49.40;;;;;;5023153;28;20100;-57
2021/12/04 08:37:05;;;;;;;1.67;0.93;;;19.80;49.40;;;;;;5022002;28;20026;-59
2021/12/04 08:39:32;;;;;;;2.25;0.95;;;19.90;49.50;;;;;;5027349;28;20484;-59
2021/12/04 08:42:01;;;;;;;1.42;0.90;;;19.80;49.30;;;;;;5014737;28;20181;-59
2021/12/04 08:44:27;;;;;;;1.30;0.95;;;19.80;49.40;;;;;;5015317;28;20595;-60
2021/12/04 08:46:52;;;;;;;1.40;1.00;;;19.80;49.40;;;;;;5015757;28;20045;-62
2021/12/04 08:49:18;;;;;;;1.40;1.00;;;19.80;49.30;;;;;;5013376;28;20086;-59
2021/12/04 08:51:44;;;;;;;1.95;1.08;;;19.80;49.80;;;;;;5019077;28;20064;-60
2021/12/04 08:54:11;;;;;;;1.15;0.88;;;19.80;49.40;;;;;;5017722;28;20075;-60
2021/12/04 08:56:37;;;;;;;1.60;0.93;;;19.80;49.40;;;;;;5011494;28;20476;-59
2021/12/04 08:59:06;;;;;;;1.75;1.00;;;19.80;49.30;;;;;;5018864;28;20021;-61
2021/12/04 09:01:36;;;;;;;1.92;1.10;;;19.80;49.50;;;;;;5014375;28;20500;-61
2021/12/04 09:04:10;;;;;;;2.15;1.00;;;19.90;49.90;;;;;;5015005;28;20028;-59
2021/12/04 09:06:37;;;;;;;2.03;1.00;;;20.20;49.80;;;;;;5019502;28;20087;-61
2021/12/04 09:09:06;;;;;;;2.30;1.00;;;20.40;49.50;;;;;;5020590;28;20034;-60
2021/12/04 09:11:43;;;;;;;0.97;0.80;;;20.50;49.10;;;;;;5018749;28;20044;-59
2021/12/04 09:14:13;;;;;;;1.33;1.00;;;20.60;48.90;;;;;;5021778;28;20033;-62
2021/12/04 09:16:39;;;;;;;1.77;1.00;;;20.80;48.80;;;;;;5018635;28;20028;-62
2021/12/04 09:19:05;;;;;;;2.65;1.10;;;20.90;48.70;;;;;;5020007;28;20548;-60
2021/12/04 09:21:32;;;;;;;1.55;0.95;;;21.00;48.60;;;;;;5024112;28;20033;-60
2021/12/04 09:24:05;;;;;;;2.50;1.00;;;21.20;48.50;;;;;;5022145;28;20038;-61
2021/12/04 09:29:13;;;;;;;1.73;1.05;;;21.50;47.80;;;;;;5018730;28;20030;-60
2021/12/04 09:32:03;;;;;;;1.42;1.00;;;21.70;47.30;;;;;;5016491;28;20068;-61
2021/12/04 09:59:25;;;;;;;1.88;1.00;;;22.50;45.70;;;;;;5010534;28;20044;-60
2021/12/04 10:02:16;;;;;;;2.20;1.20;;;22.50;45.80;;;;;;5015848;28;20061;-61
2021/12/04 10:34:59;;;;;;;2.08;1.20;;;22.10;46.10;;;;;;5025086;28;20027;-62
2021/12/04 10:37:29;;;;;;;2.05;1.02;;;22.10;46.10;;;;;;5022171;28;20040;-61
2021/12/04 10:39:59;;;;;;;3.28;1.23;;;22.10;46.20;;;;;;5018698;28;20056;-63
2021/12/04 10:42:30;;;;;;;2.30;1.30;;;22.00;46.20;;;;;;5025357;28;20205;-61
2021/12/04 10:44:57;;;;;;;2.30;1.10;;;22.00;46.30;;;;;;5021676;28;20034;-63
2021/12/04 10:47:28;;;;;;;3.33;1.33;;;22.00;46.30;;;;;;5024418;28;20025;-61
2021/12/04 10:55:22;;;;;;;3.05;1.20;;;21.90;46.50;;;;;;5016679;28;20393;-61
2021/12/04 11:23:40;;;;;;;4.07;1.60;;;21.60;47.00;;;;;;5027648;28;20041;-59
2021/12/04 11:35:09;;;;;;;3.72;1.50;;;21.60;47.30;;;;;;5017067;28;20119;-62
2021/12/04 11:42:06;;;;;;;3.67;1.67;;;21.50;47.50;;;;;;5026252;28;20112;-62
2021/12/04 11:44:54;;;;;;;5.38;1.88;;;21.50;47.60;;;;;;5022954;28;20029;-60
2021/12/04 11:47:21;;;;;;;4.93;1.83;;;21.50;47.70;;;;;;5020340;28;20033;-61
2021/12/04 11:49:47;;;;;;;3.97;1.60;;;21.50;47.80;;;;;;5025307;28;20113;-60
2021/12/04 11:52:17;;;;;;;4.60;1.80;;;21.40;47.80;;;;;;5023675;28;20620;-60
2021/12/04 11:54:53;;;;;;;3.95;1.70;;;21.40;47.90;;;;;;5020188;28;20429;-60
2021/12/04 11:57:30;;;;;;;4.47;1.90;;;21.40;48.00;;;;;;5020904;28;20109;-61
2021/12/04 12:00:24;;;;;;;6.45;2.10;;;21.40;48.10;;;;;;5023586;28;20400;-60
2021/12/04 12:02:52;;;;;;;4.53;2.20;;;21.40;48.10;;;;;;5015840;28;20241;-62
2021/12/04 12:05:20;;;;;;;4.18;1.90;;;21.30;48.10;;;;;;5018131;28;20628;-61
2021/12/04 12:07:55;;;;;;;4.82;1.92;;;21.30;48.20;;;;;;5021895;28;20025;-63
2021/12/04 12:10:25;;;;;;;4.63;1.90;;;21.30;48.40;;;;;;5018100;28;20155;-61
2021/12/04 12:12:53;;;;;;;7.40;2.10;;;21.30;48.40;;;;;;5020791;28;20029;-61
2021/12/04 12:15:30;;;;;;;5.22;1.95;;;21.30;48.50;;;;;;5027095;28;20061;-60
2021/12/04 12:18:08;;;;;;;5.30;2.13;;;21.30;48.60;;;;;;5022636;28;20082;-64
2021/12/04 12:20:41;;;;;;;5.73;2.40;;;21.30;48.70;;;;;;5017668;28;20552;-62
2021/12/04 12:23:10;;;;;;;6.40;2.30;;;21.30;49.20;;;;;;5020536;28;20697;-61
2021/12/04 12:32:13;;;;;;;5.38;2.15;;;21.20;49.20;;;;;;5016619;28;20566;-61
2021/12/04 12:37:25;;;;;;;7.50;2.53;;;21.20;49.30;;;;;;5019544;28;20114;-60
2021/12/04 12:39:58;;;;;;;5.35;2.35;;;21.20;49.30;;;;;;5018610;28;20533;-60
2021/12/04 12:42:27;;;;;;;6.03;2.55;;;21.10;49.30;;;;;;5021756;28;20031;-63
2021/12/04 12:44:53;;;;;;;5.85;2.53;;;21.10;49.40;;;;;;5022317;28;20030;-60
2021/12/04 12:47:21;;;;;;;5.07;2.13;;;21.10;49.40;;;;;;5020803;28;20112;-61
2021/12/04 12:49:48;;;;;;;4.63;2.30;;;21.10;49.40;;;;;;5020637;28;20137;-62
2021/12/04 12:52:21;;;;;;;5.68;2.20;;;21.10;49.40;;;;;;5026597;28;20009;-63
2021/12/04 12:54:54;;;;;;;5.10;2.30;;;21.10;49.50;;;;;;5016837;28;20082;-59
2021/12/04 12:57:34;;;;;;;4.80;2.38;;;21.00;49.50;;;;;;5023842;28;20104;-60
2021/12/04 13:14:35;;;;;;;5.07;2.53;;;21.00;49.70;;;;;;5015768;28;20094;-61
2021/12/04 13:17:06;;;;;;;6.32;2.50;;;21.00;49.80;;;;;;5020998;28;20083;-59
2021/12/04 13:19:36;;;;;;;5.63;2.20;;;21.00;49.80;;;;;;5021477;28;20032;-60
2021/12/04 13:22:04;;;;;;;;;;;21.00;49.80;;;;;;5017250;28;20029;-61
2021/12/04 13:24:34;;;;;;;6.35;2.63;;;21.00;49.90;;;;;;5017623;28;19959;-61
2021/12/04 13:29:47;;;;;;;6.40;2.70;;;20.90;49.80;;;;;;5021506;28;20060;-61
2021/12/04 13:32:15;;;;;;;6.05;2.95;;;20.90;50.10;;;;;;5016079;28;20037;-61
2021/12/04 13:34:42;;;;;;;6.65;2.92;;;21.00;50.30;;;;;;5018077;28;20030;-63
2021/12/04 13:37:09;;;;;;;7.78;2.97;;;21.00;50.30;;;;;;5015363;28;20180;-62
2021/12/04 13:39:38;;;;;;;5.50;2.72;;;20.90;50.40;;;;;;5016840;28;20446;-61
2021/12/04 13:42:04;;;;;;;5.78;2.47;;;20.90;50.40;;;;;;5010556;28;20092;-61
2021/12/04 13:44:31;;;;;;;5.05;2.45;;;20.90;50.40;;;;;;5019717;28;20033;-60
2021/12/04 13:47:04;;;;;;;6.00;2.95;;;20.90;50.40;;;;;;5013856;28;20041;-62
2021/12/04 13:49:37;;;;;;;4.70;2.17;;;20.90;50.40;;;;;;5018108;28;20026;-60
2021/12/04 13:52:07;;;;;;;7.25;3.00;;;20.90;50.30;;;;;;5020784;28;20044;-63
2021/12/04 13:54:38;;;;;;;6.05;2.53;;;20.90;50.40;;;;;;5020227;28;20128;-61
2021/12/04 13:57:11;;;;;;;5.75;2.50;;;20.90;50.40;;;;;;5018041;28;20068;-62
2021/12/04 13:59:38;;;;;;;6.78;3.00;;;20.90;50.40;;;;;;5020818;28;20894;-59
2021/12/04 14:02:04;;;;;;;5.35;2.22;;;20.80;50.40;;;;;;5019559;28;20692;-62
2021/12/04 14:04:30;;;;;;;5.72;2.45;;;20.80;50.40;;;;;;5017312;28;20030;-61
2021/12/04 14:06:59;;;;;;;6.93;2.85;;;20.80;50.30;;;;;;5026891;28;20671;-61
2021/12/04 14:09:41;;;;;;;6.57;2.67;;;20.80;50.30;;;;;;5024616;28;20018;-61
2021/12/04 14:12:07;;;;;;;6.10;2.80;;;20.80;50.30;;;;;;5019452;28;20145;-60
2021/12/04 14:14:34;;;;;;;6.90;2.28;;;20.80;50.30;;;;;;5024561;28;20037;-60
2021/12/04 14:17:10;;;;;;;5.82;2.67;;;20.80;50.30;;;;;;5018428;28;20030;-61
2021/12/04 14:19:36;;;;;;;7.57;2.95;;;20.80;50.30;;;;;;5032408;28;20065;-60
2021/12/04 14:22:10;;;;;;;6.72;2.67;;;20.80;50.30;;;;;;5032604;28;20415;-60
2021/12/04 14:24:43;;;;;;;6.63;2.90;;;20.90;50.30;;;;;;5018652;28;20059;-61
2021/12/04 14:27:18;;;;;;;5.45;2.70;;;20.90;50.20;;;;;;5025176;28;20033;-60
2021/12/04 14:29:47;;;;;;;6.28;2.90;;;20.90;50.20;;;;;;5035214;28;20041;-61
2021/12/04 14:32:24;;;;;;;7.80;2.90;;;20.90;50.20;;;;;;5029603;28;20511;-59
2021/12/04 14:35:18;;;;;;;5.55;2.75;;;20.90;50.20;;;;;;5023910;28;20451;-60
2021/12/04 14:37:55;;;;;;;7.60;3.13;;;21.00;50.20;;;;;;5029033;28;20083;-63
2021/12/04 14:40:33;;;;;;;6.53;2.70;;;21.00;50.10;;;;;;5032514;28;20047;-60
2021/12/04 14:43:01;;;;;;;7.03;2.80;;;21.00;50.00;;;;;;5034094;28;20033;-60
2021/12/04 14:45:33;;;;;;;5.60;2.67;;;21.00;50.00;;;;;;5030738;28;20135;-60
2021/12/04 14:48:12;;;;;;;6.50;2.83;;;21.00;50.00;;;;;;5034104;28;20026;-59
2021/12/04 14:50:43;;;;;;;5.65;2.60;;;21.10;50.00;;;;;;5028676;28;20029;-58
2021/12/04 14:53:13;;;;;;;5.70;2.88;;;21.00;50.00;;;;;;5033083;28;20017;-60
2021/12/04 14:55:44;;;;;;;5.32;2.67;;;21.10;50.00;;;;;;5017494;28;20124;-60
2021/12/04 14:58:16;;;;;;;5.95;2.50;;;21.10;49.90;;;;;;5030471;28;20537;-61
2021/12/04 15:00:56;;;;;;;6.10;2.70;;;21.10;49.80;;;;;;5025676;28;20038;-61
2021/12/04 15:03:41;;;;;;;6.05;2.60;;;21.10;50.10;;;;;;5033401;28;20457;-60
2021/12/04 15:06:11;;;;;;;6.05;2.50;;;21.20;50.00;;;;;;5030087;28;20082;-61
2021/12/04 15:08:39;;;;;;;5.95;2.85;;;21.20;49.90;;;;;;5029039;28;20394;-62
2021/12/04 15:11:10;;;;;;;5.65;2.47;;;21.20;50.00;;;;;;5023154;28;20102;-60
2021/12/04 15:13:44;;;;;;;4.82;2.17;;;21.20;50.00;;;;;;5029427;28;20140;-61
2021/12/04 15:16:14;;;;;;;5.72;2.45;;;21.20;50.10;;;;;;5027594;28;20031;-61
2021/12/04 15:18:41;;;;;;;4.38;2.28;;;21.20;50.10;;;;;;5031614;28;20017;-60
2021/12/04 15:21:13;;;;;;;6.57;2.70;;;21.20;50.00;;;;;;5029733;28;20056;-61
2021/12/04 15:23:39;;;;;;;6.00;2.70;;;21.20;49.90;;;;;;5027902;28;20068;-59
2021/12/04 15:26:18;;;;;;;4.68;2.42;;;21.20;49.90;;;;;;5019748;28;20312;-62
2021/12/04 15:28:48;;;;;;;5.07;2.53;;;21.20;49.90;;;;;;5026385;28;20739;-62
2021/12/04 15:31:14;;;;;;;7.43;2.80;;;21.20;49.80;;;;;;5024321;28;20076;-61
2021/12/04 15:33:43;;;;;;;7.20;2.50;;;21.20;49.80;;;;;;5030553;28;20151;-61
2021/12/04 15:36:27;;;;;;;4.88;2.13;;;21.20;49.80;;;;;;5025668;28;20034;-61
2021/12/04 15:38:56;;;;;;;4.32;2.35;;;21.20;49.80;;;;;;5028983;28;20059;-60
2021/12/04 15:46:42;;;;;;;6.40;2.65;;;21.20;49.90;;;;;;5021166;28;20116;-58
2021/12/04 15:52:47;;;;;;;4.18;2.35;;;21.10;49.80;;;;;;5029122;28;20032;-61
2021/12/04 15:54:38;;;;;;;4.82;2.40;;;21.10;49.80;;;;;;5025471;28;20037;-59
2021/12/04 15:57:14;;;;;;;5.45;2.38;;;21.10;49.80;;;;;;5027065;28;20261;-62
2021/12/04 15:59:45;;;;;;;5.22;2.30;;;21.10;49.80;;;;;;5025012;28;20043;-60
2021/12/04 16:02:15;;;;;;;5.25;2.40;;;21.10;49.80;;;;;;5026920;28;20179;-60
2021/12/04 16:04:42;;;;;;;4.95;2.42;;;21.10;49.90;;;;;;5025906;28;20517;-61
2021/12/04 16:07:08;;;;;;;4.22;2.22;;;21.00;49.80;;;;;;5031858;28;20106;-60
2021/12/04 16:09:40;;;;;;;4.15;2.03;;;21.10;49.90;;;;;;5025261;28;20060;-62
2021/12/04 16:12:09;;;;;;;4.38;2.25;;;21.00;49.90;;;;;;5024818;28;20040;-61
2021/12/04 16:14:38;;;;;;;3.30;1.88;;;21.00;50.00;;;;;;5026134;28;20211;-60
2021/12/04 16:17:05;;;;;;;4.00;1.98;;;21.00;50.00;;;;;;5026852;28;20091;-60
2021/12/04 16:19:33;;;;;;;3.90;1.90;;;21.00;49.90;;;;;;5023927;28;20477;-60